QTR1809 EGKK-LFPG
Flight info
| Callsign | QTR1809 |
|---|---|
| Flight time | 0h 33m |
| Altitude | 23000 |
| Route | SFD M605 HARDY UM605 BIBAX |
| Aircraft | B38M/M-SDE1FGHILORVWXY/HB1 |
Departure
| Time | 2026-05-08 19:25 |
|---|---|
| Airport | London Gatwick Airport (EGKK) |
Arrival
| Time | 2026-05-08 19:58 |
|---|---|
| Airport | Charles de Gaulle International Airport (LFPG) |
| Time | Latitude | Longitude | Altitude | Speed | Heading |
|---|---|---|---|---|---|
| 2026-05-08 18:52 | 51.15183 | -0.19480 | 213 ft | 0 kts | 77° |
| 2026-05-08 19:06 | 51.15181 | -0.19492 | 196 ft | 3 kts | 77° |
| 2026-05-08 19:06 | 51.15177 | -0.19520 | 224 ft | 3 kts | 77° |
| 2026-05-08 19:06 | 51.15174 | -0.19547 | 212 ft | 3 kts | 77° |
| 2026-05-08 19:06 | 51.15173 | -0.19575 | 210 ft | 3 kts | 126° |
| 2026-05-08 19:07 | 51.15183 | -0.19588 | 205 ft | 0 kts | 169° |
| 2026-05-08 19:09 | 51.15176 | -0.19586 | 205 ft | 2 kts | 169° |
| 2026-05-08 19:09 | 51.15156 | -0.19581 | 208 ft | 3 kts | 173° |
| 2026-05-08 19:09 | 51.15128 | -0.19576 | 213 ft | 5 kts | 173° |
| 2026-05-08 19:10 | 51.15086 | -0.19570 | 205 ft | 7 kts | 174° |
| 2026-05-08 19:10 | 51.15033 | -0.19574 | 205 ft | 8 kts | 201° |
| 2026-05-08 19:10 | 51.15008 | -0.19632 | 215 ft | 6 kts | 256° |
| 2026-05-08 19:10 | 51.14996 | -0.19707 | 211 ft | 8 kts | 256° |
| 2026-05-08 19:11 | 51.14981 | -0.19808 | 208 ft | 11 kts | 257° |
| 2026-05-08 19:11 | 51.14962 | -0.19936 | 207 ft | 13 kts | 257° |
| 2026-05-08 19:11 | 51.14940 | -0.20092 | 215 ft | 16 kts | 257° |
| 2026-05-08 19:11 | 51.14915 | -0.20271 | 207 ft | 18 kts | 257° |
| 2026-05-08 19:12 | 51.14888 | -0.20469 | 210 ft | 18 kts | 258° |
| 2026-05-08 19:12 | 51.14852 | -0.20633 | 209 ft | 13 kts | 226° |
| 2026-05-08 19:12 | 51.14780 | -0.20695 | 209 ft | 12 kts | 204° |
| 2026-05-08 19:12 | 51.14710 | -0.20715 | 208 ft | 7 kts | 171° |
| 2026-05-08 19:13 | 51.14695 | -0.20711 | 208 ft | 0 kts | 171° |
| 2026-05-08 19:16 | 51.14694 | -0.20711 | 208 ft | 0 kts | 171° |
| 2026-05-08 19:23 | 51.14658 | -0.20701 | 212 ft | 11 kts | 169° |
| 2026-05-08 19:23 | 51.14592 | -0.20635 | 213 ft | 9 kts | 97° |
| 2026-05-08 19:23 | 51.14589 | -0.20534 | 214 ft | 7 kts | 77° |
| 2026-05-08 19:24 | 51.14633 | -0.20264 | 210 ft | 61 kts | 76° |
| 2026-05-08 19:24 | 51.14790 | -0.19186 | 211 ft | 136 kts | 76° |
| 2026-05-08 19:24 | 51.15034 | -0.17442 | 391 ft | 182 kts | 77° |
| 2026-05-08 19:24 | 51.15400 | -0.15135 | 678 ft | 244 kts | 78° |
| 2026-05-08 19:25 | 51.15761 | -0.12534 | 2431 ft | 219 kts | 81° |
| 2026-05-08 19:25 | 51.16012 | -0.10223 | 3919 ft | 201 kts | 83° |
| 2026-05-08 19:25 | 51.16045 | -0.08080 | 4854 ft | 190 kts | 108° |
| 2026-05-08 19:25 | 51.15426 | -0.06251 | 5462 ft | 192 kts | 137° |
| 2026-05-08 19:26 | 51.14264 | -0.05158 | 5919 ft | 204 kts | 166° |
| 2026-05-08 19:26 | 51.12821 | -0.04647 | 6319 ft | 221 kts | 168° |
| 2026-05-08 19:26 | 51.11259 | -0.04148 | 6703 ft | 238 kts | 169° |
| 2026-05-08 19:26 | 51.09574 | -0.03583 | 7070 ft | 255 kts | 165° |
| 2026-05-08 19:27 | 51.07840 | -0.02709 | 7566 ft | 266 kts | 164° |
| 2026-05-08 19:27 | 51.06040 | -0.01893 | 8207 ft | 272 kts | 165° |
| 2026-05-08 19:27 | 51.04206 | -0.01059 | 8908 ft | 276 kts | 165° |
| 2026-05-08 19:27 | 51.02351 | -0.00177 | 9596 ft | 280 kts | 164° |
| 2026-05-08 19:28 | 51.00464 | 0.00727 | 10278 ft | 284 kts | 165° |
| 2026-05-08 19:28 | 50.98559 | 0.01629 | 10912 ft | 288 kts | 165° |
| 2026-05-08 19:28 | 50.96625 | 0.02539 | 11555 ft | 291 kts | 165° |
| 2026-05-08 19:28 | 50.94675 | 0.03459 | 12197 ft | 294 kts | 165° |
| 2026-05-08 19:29 | 50.92730 | 0.04376 | 12830 ft | 297 kts | 165° |
| 2026-05-08 19:29 | 50.90744 | 0.05313 | 13478 ft | 300 kts | 165° |
| 2026-05-08 19:29 | 50.88721 | 0.06264 | 14082 ft | 303 kts | 165° |
| 2026-05-08 19:29 | 50.86695 | 0.07217 | 14648 ft | 305 kts | 165° |
| 2026-05-08 19:30 | 50.84651 | 0.08176 | 15232 ft | 308 kts | 165° |
| 2026-05-08 19:30 | 50.82588 | 0.09142 | 15806 ft | 310 kts | 165° |
| 2026-05-08 19:30 | 50.80515 | 0.10112 | 16387 ft | 312 kts | 165° |
| 2026-05-08 19:30 | 50.78427 | 0.11089 | 16981 ft | 314 kts | 164° |
| 2026-05-08 19:31 | 50.76378 | 0.12147 | 17558 ft | 316 kts | 155° |
| 2026-05-08 19:31 | 50.74546 | 0.14095 | 18149 ft | 319 kts | 143° |
| 2026-05-08 19:31 | 50.67692 | 0.22942 | 19991 ft | 330 kts | 143° |
| 2026-05-08 19:31 | 50.60504 | 0.32106 | 21685 ft | 344 kts | 142° |
| 2026-05-08 19:32 | 50.52915 | 0.41751 | 23081 ft | 358 kts | 142° |
| 2026-05-08 19:32 | 50.45172 | 0.51554 | 23081 ft | 358 kts | 142° |
| 2026-05-08 19:32 | 50.37398 | 0.61352 | 23082 ft | 359 kts | 142° |
| 2026-05-08 19:32 | 50.29582 | 0.71160 | 23074 ft | 359 kts | 142° |
| 2026-05-08 19:33 | 50.21744 | 0.80952 | 23077 ft | 359 kts | 142° |
| 2026-05-08 19:33 | 50.13953 | 0.90644 | 23069 ft | 354 kts | 142° |
| 2026-05-08 19:33 | 50.06729 | 0.99561 | 23064 ft | 313 kts | 147° |
| 2026-05-08 19:33 | 50.04013 | 1.01156 | 23108 ft | 308 kts | 176° |
| 2026-05-08 19:34 | 50.01879 | 1.01177 | 23085 ft | 306 kts | 185° |
| 2026-05-08 19:34 | 49.99756 | 1.00979 | 23082 ft | 305 kts | 184° |
| 2026-05-08 19:34 | 49.97639 | 1.00919 | 23079 ft | 305 kts | 180° |
| 2026-05-08 19:34 | 49.95514 | 1.01033 | 23062 ft | 305 kts | 179° |
| 2026-05-08 19:35 | 49.93420 | 1.01134 | 23072 ft | 304 kts | 180° |
| 2026-05-08 19:35 | 49.91304 | 1.01172 | 23078 ft | 304 kts | 180° |
| 2026-05-08 19:35 | 49.89187 | 1.01204 | 23075 ft | 304 kts | 180° |
| 2026-05-08 19:35 | 49.87075 | 1.01230 | 23065 ft | 303 kts | 186° |
| 2026-05-08 19:36 | 49.85108 | 1.00258 | 23113 ft | 300 kts | 218° |
| 2026-05-08 19:36 | 49.83618 | 0.98031 | 23069 ft | 299 kts | 218° |
| 2026-05-08 19:36 | 49.81749 | 0.96734 | 23116 ft | 302 kts | 185° |
| 2026-05-08 19:36 | 49.79675 | 0.97157 | 23134 ft | 305 kts | 155° |
| 2026-05-08 19:37 | 49.77850 | 0.98847 | 23093 ft | 306 kts | 143° |
| 2026-05-08 19:37 | 49.76211 | 1.00871 | 22959 ft | 306 kts | 140° |
| 2026-05-08 19:37 | 49.74579 | 1.03051 | 22716 ft | 305 kts | 139° |
| 2026-05-08 19:37 | 49.72995 | 1.05215 | 22480 ft | 302 kts | 139° |
| 2026-05-08 19:38 | 49.71459 | 1.07331 | 22267 ft | 300 kts | 138° |
| 2026-05-08 19:38 | 49.69906 | 1.09477 | 22023 ft | 298 kts | 138° |
| 2026-05-08 19:38 | 49.68346 | 1.11636 | 21510 ft | 305 kts | 138° |
| 2026-05-08 19:38 | 49.66721 | 1.13889 | 20774 ft | 320 kts | 139° |
| 2026-05-08 19:39 | 49.65056 | 1.16241 | 20080 ft | 332 kts | 137° |
| 2026-05-08 19:39 | 49.63385 | 1.18752 | 19411 ft | 341 kts | 136° |
| 2026-05-08 19:39 | 49.61689 | 1.21368 | 18767 ft | 349 kts | 136° |
| 2026-05-08 19:39 | 49.59961 | 1.24064 | 18048 ft | 356 kts | 135° |
| 2026-05-08 19:40 | 49.58207 | 1.26804 | 17294 ft | 361 kts | 135° |
| 2026-05-08 19:40 | 49.56435 | 1.29576 | 16548 ft | 365 kts | 135° |
| 2026-05-08 19:40 | 49.54646 | 1.32370 | 15820 ft | 369 kts | 135° |
| 2026-05-08 19:40 | 49.52843 | 1.35189 | 15099 ft | 371 kts | 135° |
| 2026-05-08 19:41 | 49.51017 | 1.38027 | 14388 ft | 373 kts | 135° |
| 2026-05-08 19:41 | 49.49193 | 1.40884 | 13663 ft | 375 kts | 135° |
| 2026-05-08 19:41 | 49.47396 | 1.43809 | 12886 ft | 376 kts | 134° |
| 2026-05-08 19:41 | 49.45532 | 1.46639 | 12125 ft | 376 kts | 140° |
| 2026-05-08 19:42 | 49.43479 | 1.49120 | 11383 ft | 376 kts | 144° |
| 2026-05-08 19:42 | 49.41286 | 1.51304 | 10655 ft | 375 kts | 149° |
| 2026-05-08 19:42 | 49.39021 | 1.53253 | 10182 ft | 368 kts | 151° |
| 2026-05-08 19:42 | 49.36804 | 1.55052 | 10073 ft | 351 kts | 152° |
| 2026-05-08 19:43 | 49.34726 | 1.56702 | 10049 ft | 332 kts | 152° |
| 2026-05-08 19:43 | 49.32693 | 1.58305 | 10044 ft | 315 kts | 152° |
| 2026-05-08 19:43 | 49.30812 | 1.59783 | 10050 ft | 300 kts | 153° |
| 2026-05-08 19:43 | 49.29002 | 1.61245 | 9987 ft | 289 kts | 151° |
| 2026-05-08 19:44 | 49.27254 | 1.62725 | 9824 ft | 282 kts | 151° |
| 2026-05-08 19:44 | 49.25556 | 1.64189 | 9629 ft | 277 kts | 150° |
| 2026-05-08 19:44 | 49.23894 | 1.65628 | 9409 ft | 273 kts | 150° |
| 2026-05-08 19:44 | 49.22250 | 1.67053 | 9175 ft | 270 kts | 150° |
| 2026-05-08 19:45 | 49.20623 | 1.68462 | 8928 ft | 267 kts | 150° |
| 2026-05-08 19:45 | 49.19013 | 1.69857 | 8720 ft | 265 kts | 150° |
| 2026-05-08 19:45 | 49.17420 | 1.71236 | 8500 ft | 262 kts | 150° |
| 2026-05-08 19:45 | 49.15858 | 1.72590 | 8284 ft | 260 kts | 150° |
| 2026-05-08 19:46 | 49.14292 | 1.73947 | 8086 ft | 257 kts | 150° |
| 2026-05-08 19:46 | 49.12743 | 1.75285 | 7877 ft | 255 kts | 150° |
| 2026-05-08 19:46 | 49.10038 | 1.77633 | 7526 ft | 250 kts | 151° |
| 2026-05-08 19:47 | 49.09286 | 1.78296 | 7429 ft | 249 kts | 151° |
| 2026-05-08 19:47 | 49.08789 | 1.78731 | 7366 ft | 248 kts | 151° |
| 2026-05-08 19:47 | 49.08037 | 1.79382 | 7265 ft | 247 kts | 152° |
| 2026-05-08 19:47 | 49.07291 | 1.80025 | 7169 ft | 246 kts | 152° |
| 2026-05-08 19:48 | 49.06547 | 1.80667 | 7067 ft | 245 kts | 152° |
| 2026-05-08 19:48 | 49.05807 | 1.81305 | 6973 ft | 244 kts | 152° |
| 2026-05-08 19:48 | 49.05071 | 1.81940 | 6872 ft | 243 kts | 151° |
| 2026-05-08 19:48 | 49.04684 | 1.82273 | 6829 ft | 242 kts | 152° |
| 2026-05-08 19:49 | 49.04316 | 1.82587 | 6778 ft | 242 kts | 152° |
| 2026-05-08 19:49 | 49.03949 | 1.82901 | 6738 ft | 241 kts | 152° |
| 2026-05-08 19:49 | 49.03585 | 1.83213 | 6687 ft | 241 kts | 152° |
| 2026-05-08 19:49 | 49.02735 | 1.84061 | 6548 ft | 240 kts | 135° |
| 2026-05-08 19:50 | 49.01950 | 1.86241 | 6421 ft | 237 kts | 106° |
| 2026-05-08 19:50 | 49.01626 | 1.88711 | 6146 ft | 239 kts | 99° |
| 2026-05-08 19:50 | 49.01392 | 1.91205 | 6066 ft | 240 kts | 98° |
| 2026-05-08 19:50 | 49.01162 | 1.93793 | 6056 ft | 252 kts | 98° |
| 2026-05-08 19:51 | 49.00932 | 1.96398 | 5955 ft | 246 kts | 98° |
| 2026-05-08 19:51 | 49.00764 | 1.99022 | 5722 ft | 245 kts | 93° |
| 2026-05-08 19:51 | 49.00623 | 2.01556 | 5508 ft | 243 kts | 102° |
| 2026-05-08 19:51 | 49.00339 | 2.04080 | 5282 ft | 241 kts | 98° |
| 2026-05-08 19:52 | 49.00162 | 2.06624 | 5067 ft | 240 kts | 94° |
| 2026-05-08 19:52 | 49.00140 | 2.09125 | 5047 ft | 231 kts | 88° |
| 2026-05-08 19:52 | 49.00278 | 2.11513 | 5039 ft | 221 kts | 84° |
| 2026-05-08 19:52 | 49.00428 | 2.13785 | 5035 ft | 211 kts | 85° |
| 2026-05-08 19:53 | 49.00546 | 2.15937 | 5045 ft | 193 kts | 86° |
| 2026-05-08 19:53 | 49.00653 | 2.17932 | 4830 ft | 188 kts | 86° |
| 2026-05-08 19:53 | 49.00756 | 2.19879 | 4584 ft | 186 kts | 86° |
| 2026-05-08 19:53 | 49.00858 | 2.21827 | 4333 ft | 184 kts | 85° |
| 2026-05-08 19:54 | 49.00961 | 2.23768 | 4081 ft | 183 kts | 86° |
| 2026-05-08 19:54 | 49.01063 | 2.25697 | 3833 ft | 181 kts | 86° |
| 2026-05-08 19:54 | 49.01163 | 2.27604 | 3582 ft | 179 kts | 85° |
| 2026-05-08 19:54 | 49.01250 | 2.29247 | 3376 ft | 175 kts | 85° |
| 2026-05-08 19:55 | 49.01334 | 2.30835 | 3173 ft | 174 kts | 85° |
| 2026-05-08 19:55 | 49.01433 | 2.32702 | 2941 ft | 177 kts | 85° |
| 2026-05-08 19:55 | 49.01530 | 2.34549 | 2700 ft | 173 kts | 85° |
| 2026-05-08 19:55 | 49.01624 | 2.36334 | 2468 ft | 169 kts | 85° |
| 2026-05-08 19:56 | 49.01716 | 2.38080 | 2243 ft | 163 kts | 85° |
| 2026-05-08 19:56 | 49.01807 | 2.39803 | 2026 ft | 163 kts | 84° |
| 2026-05-08 19:56 | 49.01897 | 2.41504 | 1809 ft | 160 kts | 84° |
| 2026-05-08 19:56 | 49.01986 | 2.43205 | 1594 ft | 162 kts | 84° |
| 2026-05-08 19:57 | 49.02076 | 2.44901 | 1372 ft | 159 kts | 85° |
| 2026-05-08 19:57 | 49.02165 | 2.46575 | 1165 ft | 160 kts | 85° |
| 2026-05-08 19:57 | 49.02255 | 2.48296 | 972 ft | 164 kts | 84° |
| 2026-05-08 19:57 | 49.02346 | 2.50031 | 753 ft | 163 kts | 84° |
| 2026-05-08 19:58 | 49.02437 | 2.51750 | 533 ft | 162 kts | 84° |
| 2026-05-08 19:58 | 49.02525 | 2.53432 | 364 ft | 152 kts | 84° |
| 2026-05-08 19:58 | 49.02592 | 2.54674 | 355 ft | 77 kts | 84° |
| 2026-05-08 19:58 | 49.02597 | 2.55164 | 359 ft | 29 kts | 102° |
| 2026-05-08 19:59 | 49.02537 | 2.55401 | 362 ft | 14 kts | 117° |
| 2026-05-08 19:59 | 49.02530 | 2.55421 | 358 ft | 0 kts | 117° |
| 2026-05-08 20:00 | 49.02529 | 2.55423 | 355 ft | 3 kts | 117° |
| 2026-05-08 20:00 | 49.02483 | 2.55552 | 361 ft | 16 kts | 128° |
| 2026-05-08 20:00 | 49.02402 | 2.55614 | 358 ft | 4 kts | 174° |
| 2026-05-08 20:00 | 49.02401 | 2.55614 | 358 ft | 0 kts | 174° |
| 2026-05-08 20:01 | 49.02398 | 2.55614 | 358 ft | 1 kts | 174° |
| 2026-05-08 20:01 | 49.02313 | 2.55624 | 363 ft | 16 kts | 177° |
| 2026-05-08 20:01 | 49.02201 | 2.55633 | 358 ft | 16 kts | 173° |
| 2026-05-08 20:02 | 49.02148 | 2.55642 | 362 ft | 0 kts | 174° |
| 2026-05-08 20:04 | 49.02144 | 2.55643 | 359 ft | 2 kts | 174° |
| 2026-05-08 20:05 | 49.02125 | 2.55642 | 358 ft | 4 kts | 185° |
| 2026-05-08 20:05 | 49.02091 | 2.55618 | 359 ft | 7 kts | 214° |
| 2026-05-08 20:05 | 49.02075 | 2.55579 | 360 ft | 5 kts | 252° |
| 2026-05-08 20:05 | 49.02064 | 2.55505 | 359 ft | 9 kts | 260° |
| 2026-05-08 20:06 | 49.02057 | 2.55391 | 355 ft | 13 kts | 266° |
| 2026-05-08 20:06 | 49.02050 | 2.55245 | 355 ft | 15 kts | 266° |
| 2026-05-08 20:06 | 49.02043 | 2.55087 | 361 ft | 15 kts | 266° |
| 2026-05-08 20:06 | 49.02036 | 2.54926 | 355 ft | 15 kts | 266° |
| 2026-05-08 20:07 | 49.02028 | 2.54761 | 361 ft | 16 kts | 266° |
| 2026-05-08 20:07 | 49.02018 | 2.54594 | 364 ft | 16 kts | 264° |
| 2026-05-08 20:07 | 49.02008 | 2.54424 | 359 ft | 16 kts | 265° |
| 2026-05-08 20:07 | 49.01998 | 2.54253 | 357 ft | 16 kts | 265° |
| 2026-05-08 20:08 | 49.01958 | 2.54150 | 358 ft | 10 kts | 212° |
| 2026-05-08 20:08 | 49.01900 | 2.54127 | 355 ft | 9 kts | 184° |
| 2026-05-08 20:08 | 49.01838 | 2.54141 | 360 ft | 9 kts | 155° |
| 2026-05-08 20:08 | 49.01813 | 2.54181 | 358 ft | 1 kts | 114° |
| 2026-05-08 20:09 | 49.01808 | 2.54245 | 358 ft | 11 kts | 97° |
| 2026-05-08 20:09 | 49.01794 | 2.54359 | 358 ft | 11 kts | 102° |
| 2026-05-08 20:09 | 49.01760 | 2.54436 | 357 ft | 6 kts | 167° |
| 2026-05-08 20:09 | 49.01744 | 2.54427 | 355 ft | 4 kts | 213° |
| 2026-05-08 20:10 | 49.01697 | 2.54409 | 362 ft | 3 kts | 174° |
| 2026-05-08 20:10 | 49.01691 | 2.54414 | 361 ft | 1 kts | 146° |
| 2026-05-08 20:10 | 49.01684 | 2.54422 | 360 ft | 0 kts | 151° |
| 2026-05-08 20:10 | 49.01665 | 2.54420 | 357 ft | 4 kts | 200° |
| 2026-05-08 20:11 | 49.01661 | 2.54417 | 357 ft | 0 kts | 209° |
| 2026-05-08 20:12 | 49.01660 | 2.54418 | 357 ft | 0 kts | 211° |